sensor_id;sensor_type;location;lat;lon;timestamp;P1;durP1;ratioP1;P2;durP2;ratioP2
78840;SDS011;68379;47.190;27.558;2023-05-07T07:37:26;3.90;;;2.40;;
78840;SDS011;68379;47.190;27.558;2023-05-07T07:39:55;3.70;;;2.10;;
78840;SDS011;68379;47.190;27.558;2023-05-07T07:42:24;4.10;;;1.90;;
78840;SDS011;68379;47.190;27.558;2023-05-07T07:44:53;3.20;;;2.20;;
78840;SDS011;68379;47.190;27.558;2023-05-07T07:47:22;4.10;;;1.90;;
78840;SDS011;68379;47.190;27.558;2023-05-07T07:49:51;4.40;;;1.70;;
78840;SDS011;68379;47.190;27.558;2023-05-07T07:52:20;6.10;;;2.40;;
78840;SDS011;68379;47.190;27.558;2023-05-07T07:54:49;3.40;;;1.90;;
78840;SDS011;68379;47.190;27.558;2023-05-07T07:57:19;3.00;;;1.90;;
78840;SDS011;68379;47.190;27.558;2023-05-07T07:59:49;7.20;;;2.50;;
78840;SDS011;68379;47.190;27.558;2023-05-07T08:02:18;5.00;;;2.20;;
78840;SDS011;68379;47.190;27.558;2023-05-07T08:04:47;4.50;;;2.10;;
78840;SDS011;68379;47.190;27.558;2023-05-07T08:07:16;4.50;;;2.20;;
78840;SDS011;68379;47.190;27.558;2023-05-07T08:09:47;6.20;;;2.20;;
78840;SDS011;68379;47.190;27.558;2023-05-07T08:12:16;6.30;;;2.10;;
78840;SDS011;68379;47.190;27.558;2023-05-07T08:14:45;5.30;;;1.90;;
78840;SDS011;68379;47.190;27.558;2023-05-07T08:17:15;4.40;;;2.00;;
78840;SDS011;68379;47.190;27.558;2023-05-07T08:19:44;5.30;;;1.90;;
78840;SDS011;68379;47.190;27.558;2023-05-07T08:22:13;4.30;;;2.00;;
78840;SDS011;68379;47.190;27.558;2023-05-07T08:24:42;4.60;;;1.90;;
78840;SDS011;68379;47.190;27.558;2023-05-07T08:27:12;5.10;;;1.80;;
78840;SDS011;68379;47.190;27.558;2023-05-07T08:29:41;4.20;;;1.70;;
78840;SDS011;68379;47.190;27.558;2023-05-07T08:32:14;4.40;;;1.90;;
78840;SDS011;68379;47.190;27.558;2023-05-07T08:34:43;6.20;;;2.00;;
78840;SDS011;68379;47.190;27.558;2023-05-07T08:37:13;3.20;;;1.80;;
78840;SDS011;68379;47.190;27.558;2023-05-07T08:39:42;5.50;;;1.70;;
78840;SDS011;68379;47.190;27.558;2023-05-07T08:42:11;3.40;;;1.70;;
78840;SDS011;68379;47.190;27.558;2023-05-07T08:44:44;3.00;;;1.60;;
78840;SDS011;68379;47.190;27.558;2023-05-07T08:47:14;3.60;;;1.90;;
78840;SDS011;68379;47.190;27.558;2023-05-07T08:49:44;5.10;;;2.00;;
78840;SDS011;68379;47.190;27.558;2023-05-07T08:52:13;3.30;;;1.80;;
78840;SDS011;68379;47.190;27.558;2023-05-07T08:54:42;5.20;;;1.90;;
78840;SDS011;68379;47.190;27.558;2023-05-07T08:57:12;4.80;;;1.80;;
78840;SDS011;68379;47.190;27.558;2023-05-07T08:59:42;4.20;;;2.00;;
78840;SDS011;68379;47.190;27.558;2023-05-07T09:02:11;4.60;;;2.40;;
78840;SDS011;68379;47.190;27.558;2023-05-07T09:04:41;3.20;;;2.00;;
78840;SDS011;68379;47.190;27.558;2023-05-07T09:07:11;3.00;;;1.90;;
78840;SDS011;68379;47.190;27.558;2023-05-07T09:09:41;3.20;;;1.80;;
78840;SDS011;68379;47.190;27.558;2023-05-07T09:12:11;2.20;;;1.20;;
78840;SDS011;68379;47.190;27.558;2023-05-07T09:14:40;3.50;;;2.30;;
78840;SDS011;68379;47.190;27.558;2023-05-07T09:17:10;3.00;;;2.00;;
78840;SDS011;68379;47.190;27.558;2023-05-07T09:19:40;5.70;;;2.00;;
78840;SDS011;68379;47.190;27.558;2023-05-07T09:22:11;2.60;;;1.80;;
78840;SDS011;68379;47.190;27.558;2023-05-07T09:24:40;3.20;;;1.70;;
78840;SDS011;68379;47.190;27.558;2023-05-07T09:27:15;5.60;;;1.60;;
78840;SDS011;68379;47.190;27.558;2023-05-07T09:29:45;3.20;;;1.60;;
78840;SDS011;68379;47.190;27.558;2023-05-07T09:32:15;4.50;;;2.00;;
78840;SDS011;68379;47.190;27.558;2023-05-07T09:34:45;6.30;;;2.00;;
78840;SDS011;68379;47.190;27.558;2023-05-07T09:37:15;3.90;;;1.80;;
78840;SDS011;68379;47.190;27.558;2023-05-07T09:39:45;5.50;;;2.60;;
78840;SDS011;68379;47.190;27.558;2023-05-07T09:42:16;4.10;;;2.00;;
78840;SDS011;68379;47.190;27.558;2023-05-07T09:44:52;4.10;;;2.10;;
78840;SDS011;68379;47.190;27.558;2023-05-07T09:47:23;5.60;;;2.00;;
78840;SDS011;68379;47.190;27.558;2023-05-07T09:49:58;5.30;;;1.90;;
78840;SDS011;68379;47.190;27.558;2023-05-07T09:52:31;3.70;;;2.10;;
78840;SDS011;68379;47.190;27.558;2023-05-07T09:55:02;4.60;;;2.20;;
78840;SDS011;68379;47.190;27.558;2023-05-07T09:57:33;7.10;;;2.90;;
78840;SDS011;68379;47.190;27.558;2023-05-07T10:00:04;4.90;;;2.40;;
78840;SDS011;68379;47.190;27.558;2023-05-07T10:02:39;6.20;;;2.40;;
78840;SDS011;68379;47.190;27.558;2023-05-07T10:05:15;5.60;;;2.30;;
78840;SDS011;68379;47.190;27.558;2023-05-07T10:07:46;5.30;;;2.50;;
78840;SDS011;68379;47.190;27.558;2023-05-07T10:10:16;5.70;;;2.40;;
78840;SDS011;68379;47.190;27.558;2023-05-07T10:12:47;4.00;;;2.10;;
78840;SDS011;68379;47.190;27.558;2023-05-07T10:15:16;3.10;;;1.80;;
78840;SDS011;68379;47.190;27.558;2023-05-07T10:17:46;6.60;;;2.90;;
78840;SDS011;68379;47.190;27.558;2023-05-07T10:20:16;5.50;;;2.90;;
78840;SDS011;68379;47.190;27.558;2023-05-07T10:22:45;7.30;;;3.30;;
78840;SDS011;68379;47.190;27.558;2023-05-07T10:25:18;5.10;;;3.50;;
78840;SDS011;68379;47.190;27.558;2023-05-07T10:27:50;4.60;;;2.10;;
78840;SDS011;68379;47.190;27.558;2023-05-07T10:30:24;6.70;;;2.90;;
78840;SDS011;68379;47.190;27.558;2023-05-07T10:33:05;5.80;;;2.60;;
78840;SDS011;68379;47.190;27.558;2023-05-07T10:38:08;5.00;;;2.60;;
78840;SDS011;68379;47.190;27.558;2023-05-07T10:40:38;5.90;;;2.30;;
78840;SDS011;68379;47.190;27.558;2023-05-07T10:43:08;5.10;;;2.30;;
78840;SDS011;68379;47.190;27.558;2023-05-07T10:45:37;7.90;;;3.70;;
78840;SDS011;68379;47.190;27.558;2023-05-07T10:48:07;6.80;;;3.00;;
78840;SDS011;68379;47.190;27.558;2023-05-07T10:53:25;7.80;;;3.50;;
78840;SDS011;68379;47.190;27.558;2023-05-07T10:58:56;4.80;;;2.30;;
78840;SDS011;68379;47.190;27.558;2023-05-07T11:02:10;5.50;;;2.30;;
78840;SDS011;68379;47.190;27.558;2023-05-07T11:04:41;3.80;;;2.30;;
78840;SDS011;68379;47.190;27.558;2023-05-07T11:09:57;3.40;;;2.10;;
78840;SDS011;68379;47.190;27.558;2023-05-07T11:12:50;6.10;;;2.60;;
78840;SDS011;68379;47.190;27.558;2023-05-07T11:18:18;4.50;;;2.40;;
78840;SDS011;68379;47.190;27.558;2023-05-07T11:20:53;5.20;;;2.10;;
78840;SDS011;68379;47.190;27.558;2023-05-07T11:26:27;4.70;;;2.20;;
78840;SDS011;68379;47.190;27.558;2023-05-07T11:28:57;6.50;;;2.70;;
78840;SDS011;68379;47.190;27.558;2023-05-07T11:31:27;4.40;;;2.00;;
78840;SDS011;68379;47.190;27.558;2023-05-07T11:33:56;5.50;;;2.00;;
78840;SDS011;68379;47.190;27.558;2023-05-07T11:36:26;6.90;;;2.10;;
78840;SDS011;68379;47.190;27.558;2023-05-07T11:38:59;3.80;;;2.00;;
78840;SDS011;68379;47.190;27.558;2023-05-07T11:41:34;4.60;;;2.40;;
78840;SDS011;68379;47.190;27.558;2023-05-07T11:44:04;7.20;;;3.00;;
78840;SDS011;68379;47.190;27.558;2023-05-07T11:46:33;4.40;;;2.40;;
78840;SDS011;68379;47.190;27.558;2023-05-07T11:49:02;5.90;;;2.40;;
78840;SDS011;68379;47.190;27.558;2023-05-07T11:51:32;6.10;;;2.60;;
78840;SDS011;68379;47.190;27.558;2023-05-07T11:54:03;5.30;;;2.50;;
78840;SDS011;68379;47.190;27.558;2023-05-07T11:56:35;4.00;;;2.30;;
78840;SDS011;68379;47.190;27.558;2023-05-07T11:59:04;4.80;;;2.20;;
78840;SDS011;68379;47.190;27.558;2023-05-07T12:01:34;3.50;;;2.30;;
78840;SDS011;68379;47.190;27.558;2023-05-07T12:04:04;3.70;;;2.20;;
78840;SDS011;68379;47.190;27.558;2023-05-07T12:06:37;3.10;;;2.10;;
78840;SDS011;68379;47.190;27.558;2023-05-07T12:09:06;3.90;;;2.30;;
78840;SDS011;68379;47.190;27.558;2023-05-07T12:11:38;4.40;;;2.50;;
78840;SDS011;68379;47.190;27.558;2023-05-07T12:14:08;3.70;;;2.20;;
78840;SDS011;68379;47.190;27.558;2023-05-07T12:16:37;3.10;;;2.00;;
78840;SDS011;68379;47.190;27.558;2023-05-07T12:19:07;3.20;;;2.10;;
78840;SDS011;68379;47.190;27.558;2023-05-07T12:21:39;3.50;;;2.00;;
78840;SDS011;68379;47.190;27.558;2023-05-07T12:24:08;4.00;;;2.00;;
78840;SDS011;68379;47.190;27.558;2023-05-07T12:26:38;4.30;;;2.20;;
78840;SDS011;68379;47.190;27.558;2023-05-07T12:29:07;3.80;;;1.70;;
78840;SDS011;68379;47.190;27.558;2023-05-07T12:31:36;4.70;;;1.90;;
78840;SDS011;68379;47.190;27.558;2023-05-07T12:36:39;5.60;;;3.40;;
78840;SDS011;68379;47.190;27.558;2023-05-07T12:39:09;3.30;;;2.10;;
78840;SDS011;68379;47.190;27.558;2023-05-07T12:44:22;8.10;;;2.30;;
78840;SDS011;68379;47.190;27.558;2023-05-07T12:46:52;3.80;;;2.10;;
78840;SDS011;68379;47.190;27.558;2023-05-07T12:49:21;3.60;;;2.30;;
78840;SDS011;68379;47.190;27.558;2023-05-07T12:51:52;6.40;;;2.50;;
78840;SDS011;68379;47.190;27.558;2023-05-07T12:54:29;5.10;;;2.40;;
78840;SDS011;68379;47.190;27.558;2023-05-07T12:57:02;5.20;;;2.70;;
78840;SDS011;68379;47.190;27.558;2023-05-07T12:59:33;7.70;;;2.80;;
78840;SDS011;68379;47.190;27.558;2023-05-07T13:02:03;4.40;;;2.70;;
78840;SDS011;68379;47.190;27.558;2023-05-07T13:04:33;5.10;;;2.40;;
78840;SDS011;68379;47.190;27.558;2023-05-07T13:07:03;4.10;;;2.10;;
78840;SDS011;68379;47.190;27.558;2023-05-07T13:09:31;3.20;;;2.20;;
78840;SDS011;68379;47.190;27.558;2023-05-07T13:12:01;4.20;;;2.10;;
78840;SDS011;68379;47.190;27.558;2023-05-07T13:14:30;5.90;;;2.20;;
78840;SDS011;68379;47.190;27.558;2023-05-07T13:17:00;5.40;;;2.60;;
78840;SDS011;68379;47.190;27.558;2023-05-07T13:19:28;4.10;;;3.00;;
78840;SDS011;68379;47.190;27.558;2023-05-07T13:21:57;3.70;;;2.00;;
78840;SDS011;68379;47.190;27.558;2023-05-07T13:24:26;4.10;;;2.70;;
78840;SDS011;68379;47.190;27.558;2023-05-07T13:26:55;4.30;;;2.30;;
78840;SDS011;68379;47.190;27.558;2023-05-07T13:29:24;3.40;;;2.30;;
78840;SDS011;68379;47.190;27.558;2023-05-07T13:31:57;5.20;;;2.50;;
78840;SDS011;68379;47.190;27.558;2023-05-07T13:34:27;4.50;;;2.00;;
78840;SDS011;68379;47.190;27.558;2023-05-07T13:36:56;3.50;;;2.10;;
78840;SDS011;68379;47.190;27.558;2023-05-07T13:39:25;3.50;;;2.00;;
78840;SDS011;68379;47.190;27.558;2023-05-07T13:41:54;4.70;;;2.60;;
78840;SDS011;68379;47.190;27.558;2023-05-07T13:44:22;4.70;;;2.50;;
78840;SDS011;68379;47.190;27.558;2023-05-07T13:46:51;8.40;;;2.40;;
78840;SDS011;68379;47.190;27.558;2023-05-07T13:49:21;5.90;;;2.60;;
78840;SDS011;68379;47.190;27.558;2023-05-07T13:51:50;3.80;;;2.60;;
78840;SDS011;68379;47.190;27.558;2023-05-07T13:54:19;5.00;;;2.50;;
78840;SDS011;68379;47.190;27.558;2023-05-07T13:56:49;4.60;;;2.50;;
78840;SDS011;68379;47.190;27.558;2023-05-07T13:59:18;6.70;;;2.60;;
78840;SDS011;68379;47.190;27.558;2023-05-07T14:01:47;7.40;;;3.10;;
78840;SDS011;68379;47.190;27.558;2023-05-07T14:04:16;4.30;;;2.50;;
78840;SDS011;68379;47.190;27.558;2023-05-07T14:06:45;3.70;;;2.60;;
78840;SDS011;68379;47.190;27.558;2023-05-07T14:09:14;9.70;;;3.90;;
78840;SDS011;68379;47.190;27.558;2023-05-07T14:11:43;3.80;;;2.40;;
78840;SDS011;68379;47.190;27.558;2023-05-07T14:14:14;4.60;;;2.80;;
78840;SDS011;68379;47.190;27.558;2023-05-07T14:16:43;8.60;;;4.40;;
78840;SDS011;68379;47.190;27.558;2023-05-07T14:19:12;9.00;;;4.30;;
78840;SDS011;68379;47.190;27.558;2023-05-07T14:21:41;9.40;;;4.50;;
78840;SDS011;68379;47.190;27.558;2023-05-07T14:24:10;5.50;;;3.50;;
78840;SDS011;68379;47.190;27.558;2023-05-07T14:26:39;5.50;;;3.80;;
78840;SDS011;68379;47.190;27.558;2023-05-07T14:29:08;6.10;;;3.00;;
78840;SDS011;68379;47.190;27.558;2023-05-07T14:31:37;5.40;;;3.30;;
78840;SDS011;68379;47.190;27.558;2023-05-07T14:34:06;5.40;;;3.20;;
78840;SDS011;68379;47.190;27.558;2023-05-07T14:36:35;7.10;;;3.20;;
78840;SDS011;68379;47.190;27.558;2023-05-07T14:39:04;5.60;;;3.40;;
78840;SDS011;68379;47.190;27.558;2023-05-07T14:41:33;5.80;;;3.50;;
78840;SDS011;68379;47.190;27.558;2023-05-07T14:44:02;7.30;;;3.10;;
78840;SDS011;68379;47.190;27.558;2023-05-07T14:46:31;4.70;;;3.20;;
78840;SDS011;68379;47.190;27.558;2023-05-07T14:49:01;7.40;;;4.10;;
78840;SDS011;68379;47.190;27.558;2023-05-07T14:51:30;7.70;;;4.20;;
78840;SDS011;68379;47.190;27.558;2023-05-07T14:53:59;8.10;;;4.40;;
78840;SDS011;68379;47.190;27.558;2023-05-07T14:56:29;8.30;;;4.50;;
78840;SDS011;68379;47.190;27.558;2023-05-07T14:58:58;7.30;;;4.70;;
78840;SDS011;68379;47.190;27.558;2023-05-07T15:01:27;7.60;;;4.30;;
78840;SDS011;68379;47.190;27.558;2023-05-07T15:03:56;7.70;;;3.80;;
78840;SDS011;68379;47.190;27.558;2023-05-07T15:06:25;4.80;;;3.10;;
78840;SDS011;68379;47.190;27.558;2023-05-07T15:08:54;5.50;;;3.30;;
78840;SDS011;68379;47.190;27.558;2023-05-07T15:11:23;4.70;;;3.40;;
78840;SDS011;68379;47.190;27.558;2023-05-07T15:13:52;5.20;;;3.70;;
78840;SDS011;68379;47.190;27.558;2023-05-07T15:16:22;8.40;;;4.60;;
78840;SDS011;68379;47.190;27.558;2023-05-07T15:18:51;4.70;;;3.20;;
78840;SDS011;68379;47.190;27.558;2023-05-07T15:21:20;4.80;;;3.30;;
78840;SDS011;68379;47.190;27.558;2023-05-07T15:23:49;6.00;;;3.40;;
78840;SDS011;68379;47.190;27.558;2023-05-07T15:26:18;6.50;;;3.90;;
78840;SDS011;68379;47.190;27.558;2023-05-07T15:28:47;6.40;;;3.40;;
78840;SDS011;68379;47.190;27.558;2023-05-07T15:31:16;6.40;;;3.30;;
78840;SDS011;68379;47.190;27.558;2023-05-07T15:33:45;6.50;;;3.60;;
78840;SDS011;68379;47.190;27.558;2023-05-07T15:36:15;6.60;;;3.20;;
78840;SDS011;68379;47.190;27.558;2023-05-07T15:38:44;6.60;;;3.50;;
78840;SDS011;68379;47.190;27.558;2023-05-07T15:41:13;5.00;;;3.40;;
78840;SDS011;68379;47.190;27.558;2023-05-07T15:43:44;5.60;;;3.60;;
78840;SDS011;68379;47.190;27.558;2023-05-07T15:46:17;7.30;;;3.60;;
78840;SDS011;68379;47.190;27.558;2023-05-07T15:48:47;6.40;;;3.80;;
78840;SDS011;68379;47.190;27.558;2023-05-07T15:51:17;6.20;;;4.50;;
78840;SDS011;68379;47.190;27.558;2023-05-07T15:53:46;5.30;;;3.90;;
78840;SDS011;68379;47.190;27.558;2023-05-07T15:56:17;8.10;;;4.00;;
78840;SDS011;68379;47.190;27.558;2023-05-07T15:58:47;6.40;;;4.60;;
78840;SDS011;68379;47.190;27.558;2023-05-07T16:01:16;6.00;;;3.80;;
78840;SDS011;68379;47.190;27.558;2023-05-07T16:03:45;7.30;;;4.50;;
78840;SDS011;68379;47.190;27.558;2023-05-07T16:06:14;8.20;;;4.40;;
78840;SDS011;68379;47.190;27.558;2023-05-07T16:08:43;6.20;;;4.60;;
78840;SDS011;68379;47.190;27.558;2023-05-07T16:11:12;7.20;;;4.60;;
78840;SDS011;68379;47.190;27.558;2023-05-07T16:13:42;7.40;;;4.50;;
78840;SDS011;68379;47.190;27.558;2023-05-07T16:16:11;5.60;;;3.90;;
78840;SDS011;68379;47.190;27.558;2023-05-07T16:18:39;7.50;;;3.60;;
78840;SDS011;68379;47.190;27.558;2023-05-07T16:21:09;6.70;;;4.60;;
78840;SDS011;68379;47.190;27.558;2023-05-07T16:23:38;5.60;;;3.40;;
78840;SDS011;68379;47.190;27.558;2023-05-07T16:26:07;6.30;;;3.60;;
78840;SDS011;68379;47.190;27.558;2023-05-07T16:28:36;7.00;;;4.90;;
78840;SDS011;68379;47.190;27.558;2023-05-07T16:31:07;6.60;;;3.70;;
78840;SDS011;68379;47.190;27.558;2023-05-07T16:33:36;5.30;;;3.70;;
78840;SDS011;68379;47.190;27.558;2023-05-07T16:36:05;5.30;;;3.60;;
78840;SDS011;68379;47.190;27.558;2023-05-07T16:38:35;6.30;;;3.80;;
78840;SDS011;68379;47.190;27.558;2023-05-07T16:41:04;8.90;;;3.90;;
78840;SDS011;68379;47.190;27.558;2023-05-07T16:43:34;5.60;;;3.80;;
78840;SDS011;68379;47.190;27.558;2023-05-07T16:46:03;5.40;;;3.80;;
78840;SDS011;68379;47.190;27.558;2023-05-07T16:48:32;5.60;;;3.50;;
78840;SDS011;68379;47.190;27.558;2023-05-07T16:51:01;7.50;;;5.40;;
78840;SDS011;68379;47.190;27.558;2023-05-07T16:53:30;6.60;;;3.90;;
78840;SDS011;68379;47.190;27.558;2023-05-07T16:55:59;5.80;;;3.60;;
78840;SDS011;68379;47.190;27.558;2023-05-07T16:58:33;5.00;;;3.40;;
78840;SDS011;68379;47.190;27.558;2023-05-07T17:01:03;6.40;;;3.80;;
78840;SDS011;68379;47.190;27.558;2023-05-07T17:03:33;5.90;;;3.90;;
78840;SDS011;68379;47.190;27.558;2023-05-07T17:06:02;5.50;;;3.50;;
78840;SDS011;68379;47.190;27.558;2023-05-07T17:08:39;5.80;;;3.80;;
78840;SDS011;68379;47.190;27.558;2023-05-07T17:11:09;7.20;;;3.90;;
78840;SDS011;68379;47.190;27.558;2023-05-07T17:13:38;5.30;;;3.50;;
78840;SDS011;68379;47.190;27.558;2023-05-07T17:16:07;5.80;;;3.50;;
78840;SDS011;68379;47.190;27.558;2023-05-07T17:18:36;7.80;;;4.00;;
78840;SDS011;68379;47.190;27.558;2023-05-07T17:21:05;5.10;;;3.30;;
78840;SDS011;68379;47.190;27.558;2023-05-07T17:23:34;6.80;;;3.50;;
78840;SDS011;68379;47.190;27.558;2023-05-07T17:26:03;5.30;;;3.10;;
78840;SDS011;68379;47.190;27.558;2023-05-07T17:28:38;4.90;;;3.30;;
78840;SDS011;68379;47.190;27.558;2023-05-07T17:31:07;6.40;;;3.40;;
78840;SDS011;68379;47.190;27.558;2023-05-07T17:33:37;5.60;;;3.60;;
78840;SDS011;68379;47.190;27.558;2023-05-07T17:36:06;7.20;;;4.10;;
78840;SDS011;68379;47.190;27.558;2023-05-07T17:38:35;5.90;;;3.60;;
78840;SDS011;68379;47.190;27.558;2023-05-07T17:41:04;6.70;;;4.00;;
78840;SDS011;68379;47.190;27.558;2023-05-07T17:43:33;8.30;;;5.00;;
78840;SDS011;68379;47.190;27.558;2023-05-07T17:46:02;11.70;;;4.50;;
78840;SDS011;68379;47.190;27.558;2023-05-07T17:48:30;9.50;;;3.80;;
78840;SDS011;68379;47.190;27.558;2023-05-07T17:51:03;7.70;;;3.90;;
78840;SDS011;68379;47.190;27.558;2023-05-07T17:53:32;6.40;;;3.90;;
78840;SDS011;68379;47.190;27.558;2023-05-07T17:56:01;6.90;;;4.00;;
78840;SDS011;68379;47.190;27.558;2023-05-07T17:58:30;7.70;;;3.70;;
78840;SDS011;68379;47.190;27.558;2023-05-07T18:00:59;7.40;;;4.30;;
78840;SDS011;68379;47.190;27.558;2023-05-07T18:03:28;7.40;;;3.70;;
78840;SDS011;68379;47.190;27.558;2023-05-07T18:05:57;7.20;;;3.70;;
78840;SDS011;68379;47.190;27.558;2023-05-07T18:08:26;6.60;;;4.40;;
78840;SDS011;68379;47.190;27.558;2023-05-07T18:10:55;5.50;;;3.60;;
78840;SDS011;68379;47.190;27.558;2023-05-07T18:13:24;5.10;;;3.40;;
78840;SDS011;68379;47.190;27.558;2023-05-07T18:15:54;6.10;;;3.90;;
78840;SDS011;68379;47.190;27.558;2023-05-07T18:18:23;5.50;;;3.70;;
78840;SDS011;68379;47.190;27.558;2023-05-07T18:23:25;7.70;;;3.80;;
78840;SDS011;68379;47.190;27.558;2023-05-07T18:25:54;7.30;;;4.30;;
78840;SDS011;68379;47.190;27.558;2023-05-07T18:28:23;5.50;;;3.60;;
78840;SDS011;68379;47.190;27.558;2023-05-07T18:30:52;5.10;;;3.70;;
78840;SDS011;68379;47.190;27.558;2023-05-07T18:33:21;5.70;;;4.10;;
78840;SDS011;68379;47.190;27.558;2023-05-07T18:35:50;4.90;;;3.70;;
78840;SDS011;68379;47.190;27.558;2023-05-07T18:38:19;6.10;;;3.90;;
78840;SDS011;68379;47.190;27.558;2023-05-07T18:40:48;6.80;;;4.10;;
78840;SDS011;68379;47.190;27.558;2023-05-07T18:43:17;5.30;;;3.90;;
78840;SDS011;68379;47.190;27.558;2023-05-07T18:45:47;5.50;;;3.50;;
78840;SDS011;68379;47.190;27.558;2023-05-07T18:48:16;7.60;;;4.40;;
78840;SDS011;68379;47.190;27.558;2023-05-07T18:50:45;6.40;;;4.50;;
78840;SDS011;68379;47.190;27.558;2023-05-07T18:53:15;5.90;;;3.70;;
78840;SDS011;68379;47.190;27.558;2023-05-07T18:55:48;7.50;;;4.70;;
78840;SDS011;68379;47.190;27.558;2023-05-07T18:58:18;10.80;;;4.20;;
78840;SDS011;68379;47.190;27.558;2023-05-07T19:00:47;8.80;;;4.60;;
78840;SDS011;68379;47.190;27.558;2023-05-07T19:03:16;6.40;;;4.30;;
78840;SDS011;68379;47.190;27.558;2023-05-07T19:05:46;6.50;;;3.80;;
78840;SDS011;68379;47.190;27.558;2023-05-07T19:08:15;5.60;;;3.60;;
78840;SDS011;68379;47.190;27.558;2023-05-07T19:10:44;7.00;;;3.70;;
78840;SDS011;68379;47.190;27.558;2023-05-07T19:13:13;5.30;;;4.00;;
78840;SDS011;68379;47.190;27.558;2023-05-07T19:15:43;7.40;;;4.00;;
78840;SDS011;68379;47.190;27.558;2023-05-07T19:18:11;6.30;;;4.00;;
78840;SDS011;68379;47.190;27.558;2023-05-07T19:20:40;8.80;;;4.50;;
78840;SDS011;68379;47.190;27.558;2023-05-07T19:23:09;5.80;;;3.70;;
78840;SDS011;68379;47.190;27.558;2023-05-07T19:25:38;5.70;;;3.70;;
78840;SDS011;68379;47.190;27.558;2023-05-07T19:28:07;5.40;;;3.60;;
78840;SDS011;68379;47.190;27.558;2023-05-07T19:30:37;5.90;;;3.60;;
78840;SDS011;68379;47.190;27.558;2023-05-07T19:33:06;6.60;;;3.30;;
78840;SDS011;68379;47.190;27.558;2023-05-07T19:35:36;5.70;;;3.20;;
78840;SDS011;68379;47.190;27.558;2023-05-07T19:38:05;7.70;;;4.10;;
78840;SDS011;68379;47.190;27.558;2023-05-07T19:40:34;6.60;;;3.80;;
78840;SDS011;68379;47.190;27.558;2023-05-07T19:43:03;6.70;;;3.60;;
78840;SDS011;68379;47.190;27.558;2023-05-07T19:45:33;10.30;;;4.40;;
78840;SDS011;68379;47.190;27.558;2023-05-07T19:48:03;5.30;;;3.70;;
78840;SDS011;68379;47.190;27.558;2023-05-07T19:50:33;5.10;;;3.30;;
78840;SDS011;68379;47.190;27.558;2023-05-07T19:53:03;7.80;;;4.00;;
78840;SDS011;68379;47.190;27.558;2023-05-07T19:55:32;6.90;;;3.80;;
78840;SDS011;68379;47.190;27.558;2023-05-07T19:58:01;4.80;;;2.80;;
78840;SDS011;68379;47.190;27.558;2023-05-07T20:00:30;5.10;;;2.90;;
78840;SDS011;68379;47.190;27.558;2023-05-07T20:02:59;5.90;;;2.90;;
78840;SDS011;68379;47.190;27.558;2023-05-07T20:05:28;5.30;;;3.40;;
78840;SDS011;68379;47.190;27.558;2023-05-07T20:07:57;4.50;;;2.80;;
78840;SDS011;68379;47.190;27.558;2023-05-07T20:10:28;5.00;;;3.40;;
78840;SDS011;68379;47.190;27.558;2023-05-07T20:12:57;5.30;;;3.70;;
78840;SDS011;68379;47.190;27.558;2023-05-07T20:15:26;5.30;;;2.80;;
78840;SDS011;68379;47.190;27.558;2023-05-07T20:17:55;4.90;;;2.80;;
78840;SDS011;68379;47.190;27.558;2023-05-07T20:20:24;5.50;;;2.90;;
78840;SDS011;68379;47.190;27.558;2023-05-07T20:22:53;5.50;;;2.80;;
78840;SDS011;68379;47.190;27.558;2023-05-07T20:25:23;5.30;;;2.90;;
78840;SDS011;68379;47.190;27.558;2023-05-07T20:27:52;5.90;;;3.30;;
78840;SDS011;68379;47.190;27.558;2023-05-07T20:30:21;6.30;;;3.50;;
78840;SDS011;68379;47.190;27.558;2023-05-07T20:32:50;5.80;;;2.90;;
78840;SDS011;68379;47.190;27.558;2023-05-07T20:35:19;6.30;;;2.90;;
78840;SDS011;68379;47.190;27.558;2023-05-07T20:37:51;8.30;;;3.10;;
78840;SDS011;68379;47.190;27.558;2023-05-07T20:40:20;5.50;;;2.80;;
78840;SDS011;68379;47.190;27.558;2023-05-07T20:42:49;6.90;;;2.90;;
78840;SDS011;68379;47.190;27.558;2023-05-07T20:45:19;3.90;;;2.60;;
78840;SDS011;68379;47.190;27.558;2023-05-07T20:47:48;5.10;;;2.70;;
78840;SDS011;68379;47.190;27.558;2023-05-07T20:50:18;5.30;;;2.60;;
78840;SDS011;68379;47.190;27.558;2023-05-07T20:52:48;4.00;;;2.90;;
78840;SDS011;68379;47.190;27.558;2023-05-07T20:55:17;6.60;;;3.10;;
78840;SDS011;68379;47.190;27.558;2023-05-07T20:57:46;5.80;;;3.20;;
78840;SDS011;68379;47.190;27.558;2023-05-07T21:00:16;5.50;;;2.90;;
78840;SDS011;68379;47.190;27.558;2023-05-07T21:02:46;4.90;;;3.00;;
78840;SDS011;68379;47.190;27.558;2023-05-07T21:05:15;6.50;;;3.00;;
78840;SDS011;68379;47.190;27.558;2023-05-07T21:07:44;4.70;;;2.70;;
78840;SDS011;68379;47.190;27.558;2023-05-07T21:10:13;4.30;;;2.60;;
78840;SDS011;68379;47.190;27.558;2023-05-07T21:12:42;4.20;;;2.70;;
78840;SDS011;68379;47.190;27.558;2023-05-07T21:15:11;6.30;;;3.00;;
78840;SDS011;68379;47.190;27.558;2023-05-07T21:17:40;4.50;;;2.80;;
78840;SDS011;68379;47.190;27.558;2023-05-07T21:20:09;4.90;;;2.70;;
78840;SDS011;68379;47.190;27.558;2023-05-07T21:22:39;4.50;;;3.20;;
78840;SDS011;68379;47.190;27.558;2023-05-07T21:25:08;4.40;;;2.40;;
78840;SDS011;68379;47.190;27.558;2023-05-07T21:27:37;5.20;;;2.80;;
78840;SDS011;68379;47.190;27.558;2023-05-07T21:30:08;5.30;;;3.10;;
78840;SDS011;68379;47.190;27.558;2023-05-07T21:32:38;5.90;;;2.10;;
78840;SDS011;68379;47.190;27.558;2023-05-07T21:35:08;4.40;;;2.90;;
78840;SDS011;68379;47.190;27.558;2023-05-07T21:37:37;4.70;;;3.00;;
78840;SDS011;68379;47.190;27.558;2023-05-07T21:40:07;4.00;;;2.40;;
78840;SDS011;68379;47.190;27.558;2023-05-07T21:42:37;5.30;;;2.70;;
78840;SDS011;68379;47.190;27.558;2023-05-07T21:45:06;4.10;;;2.60;;
78840;SDS011;68379;47.190;27.558;2023-05-07T21:47:36;6.40;;;3.80;;
78840;SDS011;68379;47.190;27.558;2023-05-07T21:50:06;5.20;;;2.70;;
78840;SDS011;68379;47.190;27.558;2023-05-07T21:52:36;5.30;;;2.20;;
78840;SDS011;68379;47.190;27.558;2023-05-07T21:55:06;3.50;;;2.30;;
78840;SDS011;68379;47.190;27.558;2023-05-07T21:57:36;4.80;;;2.00;;
78840;SDS011;68379;47.190;27.558;2023-05-07T22:00:07;3.20;;;2.30;;
78840;SDS011;68379;47.190;27.558;2023-05-07T22:02:38;4.70;;;2.90;;
78840;SDS011;68379;47.190;27.558;2023-05-07T22:05:07;4.40;;;2.60;;
78840;SDS011;68379;47.190;27.558;2023-05-07T22:07:37;3.20;;;2.10;;
78840;SDS011;68379;47.190;27.558;2023-05-07T22:10:07;6.60;;;2.40;;
78840;SDS011;68379;47.190;27.558;2023-05-07T22:12:36;3.40;;;2.70;;
78840;SDS011;68379;47.190;27.558;2023-05-07T22:15:07;5.40;;;2.50;;
78840;SDS011;68379;47.190;27.558;2023-05-07T22:17:37;2.60;;;1.80;;
78840;SDS011;68379;47.190;27.558;2023-05-07T22:20:07;4.50;;;2.20;;
78840;SDS011;68379;47.190;27.558;2023-05-07T22:22:45;3.70;;;2.70;;
78840;SDS011;68379;47.190;27.558;2023-05-07T22:25:14;3.40;;;2.40;;
78840;SDS011;68379;47.190;27.558;2023-05-07T22:27:43;4.10;;;2.40;;
78840;SDS011;68379;47.190;27.558;2023-05-07T22:30:13;4.60;;;2.50;;
78840;SDS011;68379;47.190;27.558;2023-05-07T22:32:42;3.70;;;2.10;;
78840;SDS011;68379;47.190;27.558;2023-05-07T22:35:11;5.50;;;3.00;;
78840;SDS011;68379;47.190;27.558;2023-05-07T22:37:40;4.70;;;2.40;;
78840;SDS011;68379;47.190;27.558;2023-05-07T22:40:10;3.60;;;2.20;;
78840;SDS011;68379;47.190;27.558;2023-05-07T22:42:39;5.40;;;3.00;;
78840;SDS011;68379;47.190;27.558;2023-05-07T22:45:09;5.10;;;2.70;;
78840;SDS011;68379;47.190;27.558;2023-05-07T22:47:39;4.50;;;2.40;;
78840;SDS011;68379;47.190;27.558;2023-05-07T22:50:08;2.70;;;2.00;;